Aérodrome :
LOGIN :

S'inscrire | Disclaimer

   EN    FR    IT 

 










Légende :    VFR   VFR Marginal   IFR   IFR Intensif   IFR Très Intensif
Visi : 
Plafond : 
>= 8 km
>= 3000ft
5 à 8 km
1000 à 3000 ft
1500m à 5 km
500 à 1000 ft
800 à 1500m
200 à 500 ft
< 800m
< 200 ft
Symboles :   Orages  Brouillard  Fortes neiges  Fortes précipitations  Vent > 20 kt
SIGMETs :   Divers  Orages  Givrage  Turbulence  Onde Orograph.  Cendres Volcan.







- Altitude de l'aérodrome : 177 ft
- Code IATA : BRI


LIBD - Palese Macchie Bari

DERNIER METAR :
  • 240850Z 34008KT 300V020 CAVOK 22/10 Q1014

METARs EXPIRÉS :
  • 240820Z 35009KT CAVOK 21/12 Q1014
  • 240750Z 35009KT 320V030 CAVOK 21/12 Q1014
  • 240720Z 32008KT CAVOK 21/12 Q1014
  • 240650Z 32009KT CAVOK 21/12 Q1014
  • 240620Z 31011KT CAVOK 20/12 Q1014

TAF TAF LIBD
Valide du 24 à 06h jusqu'au 25 à 06h UTC


240500Z 2406/2506 29008KT CAVOK
BECMG 2408/2410 01012KT
BECMG 2418/2420 28008KT
Pas de NOTAMs connus pour ce terrain.



MET'MAP, la Météo Aéronautique d'un coup d'oeil ! - Copyright ORBIFLY Décembre 2007 - Disclaimer

ORBIFLY MET'MAP TEAM :

Programmation & Développement : Alexandra Zaïnal
Conception & Développement : Baudouin d'Aumeries
Co-Programmation & Développement : Marc-Olivier Méhu
Soutien technique & logistique : Manuel Goepfert

Contact : metmap@orbifly.com




SOURCES & CREDITS :

   NOAA